createdAt,value
2022-10-13T00:01:38.897Z,29.15
2022-10-13T00:04:05.272Z,23.48
2022-10-13T00:06:31.582Z,23.98
2022-10-13T00:08:58.935Z,20.02
2022-10-13T00:11:29.074Z,25.17
2022-10-13T00:14:01.350Z,22.13
2022-10-13T00:16:29.771Z,20.73
2022-10-13T00:18:56.275Z,20.92
2022-10-13T00:21:26.219Z,21.13
2022-10-13T00:23:54.228Z,25.70
2022-10-13T00:26:22.855Z,21.02
2022-10-13T00:28:52.583Z,21.48
2022-10-13T00:31:25.814Z,23.38
2022-10-13T00:33:52.700Z,24.13
2022-10-13T00:36:20.184Z,21.77
2022-10-13T00:38:46.552Z,22.00
2022-10-13T00:41:13.187Z,20.15
2022-10-13T00:43:59.891Z,23.10
2022-10-13T00:46:32.367Z,21.85
2022-10-13T00:49:18.435Z,23.25
2022-10-13T00:51:47.576Z,20.70
2022-10-13T00:54:24.156Z,24.00
2022-10-13T00:56:52.159Z,17.13
2022-10-13T00:59:25.785Z,23.40
2022-10-13T01:01:52.360Z,19.33
2022-10-13T01:04:22.199Z,23.45
2022-10-13T01:06:49.240Z,20.52
2022-10-13T01:09:15.914Z,22.25
2022-10-13T01:12:08.986Z,23.58
2022-10-13T01:14:42.544Z,22.38
2022-10-13T01:17:27.454Z,23.02
2022-10-13T01:20:25.174Z,22.33
2022-10-13T01:23:22.742Z,23.77
2022-10-13T01:25:49.009Z,19.35
2022-10-13T01:28:34.376Z,19.92
2022-10-13T01:31:11.642Z,19.13
2022-10-13T01:33:54.065Z,19.55
2022-10-13T01:36:29.175Z,17.83
2022-10-13T01:39:22.961Z,21.10
2022-10-13T01:41:53.589Z,21.00
2022-10-13T01:44:29.123Z,20.88
2022-10-13T01:46:56.408Z,23.85
2022-10-13T01:49:27.325Z,19.63
2022-10-13T01:51:56.136Z,23.15
2022-10-13T01:54:22.505Z,22.10
2022-10-13T01:56:53.567Z,21.15
2022-10-13T01:59:20.033Z,24.77
2022-10-13T02:02:28.556Z,21.45
2022-10-13T02:05:14.106Z,22.83
2022-10-13T02:07:54.377Z,21.58
2022-10-13T02:10:27.247Z,23.20
2022-10-13T02:13:05.780Z,22.88
2022-10-13T02:15:42.329Z,21.05
2022-10-13T02:18:10.694Z,22.20
2022-10-13T02:20:37.633Z,20.80
2022-10-13T02:23:16.120Z,25.35
2022-10-13T02:25:43.285Z,25.20
2022-10-13T02:28:10.145Z,20.90
2022-10-13T02:30:39.244Z,21.10
2022-10-13T02:33:05.601Z,22.67
2022-10-13T02:35:31.893Z,22.63
2022-10-13T02:37:58.323Z,22.75
2022-10-13T02:40:24.842Z,21.02
2022-10-13T02:42:51.147Z,20.40
2022-10-13T02:45:17.533Z,20.73
2022-10-13T02:47:43.861Z,23.67
2022-10-13T02:50:10.838Z,19.73
2022-10-13T02:52:37.214Z,21.90
2022-10-13T02:55:04.264Z,25.80
2022-10-13T02:57:30.887Z,20.15
2022-10-13T02:59:57.232Z,22.42
2022-10-13T03:02:23.895Z,22.90
2022-10-13T03:04:50.383Z,19.63
2022-10-13T03:07:16.718Z,21.48
2022-10-13T03:09:43.025Z,21.40
2022-10-13T03:12:09.389Z,22.10
2022-10-13T03:14:35.952Z,23.10
2022-10-13T03:17:02.775Z,21.83
2022-10-13T03:19:29.157Z,22.80
2022-10-13T03:21:55.459Z,20.42
2022-10-13T03:24:21.834Z,20.20
2022-10-13T03:26:48.149Z,20.77
2022-10-13T03:29:16.511Z,21.23
2022-10-13T03:31:42.977Z,24.67
2022-10-13T03:34:10.934Z,20.80
2022-10-13T03:36:37.651Z,24.42
2022-10-13T03:39:04.256Z,21.52
2022-10-13T03:41:30.574Z,19.85
2022-10-13T03:43:56.940Z,21.70
2022-10-13T03:46:26.303Z,22.48
2022-10-13T03:48:52.633Z,23.08
2022-10-13T03:51:21.125Z,21.92
2022-10-13T03:53:48.286Z,22.10
2022-10-13T03:56:17.671Z,20.63
2022-10-13T03:58:44.402Z,24.33
2022-10-13T04:01:13.553Z,19.70
2022-10-13T04:03:39.915Z,24.92
2022-10-13T04:06:06.591Z,19.63
2022-10-13T04:08:34.156Z,23.50
2022-10-13T04:11:02.046Z,20.35
2022-10-13T04:13:28.510Z,20.50
2022-10-13T04:15:54.825Z,22.83
2022-10-13T04:18:21.444Z,21.90
2022-10-13T04:20:47.742Z,21.60
2022-10-13T04:23:14.064Z,20.85
2022-10-13T04:25:40.425Z,20.73
2022-10-13T04:28:07.340Z,20.15
2022-10-13T04:30:34.698Z,23.02
2022-10-13T04:33:01.717Z,19.77
2022-10-13T04:35:28.089Z,23.83
2022-10-13T04:37:54.980Z,23.85
2022-10-13T04:40:21.319Z,24.88
2022-10-13T04:42:47.635Z,22.15
2022-10-13T04:45:14.112Z,19.55
2022-10-13T04:47:40.449Z,23.05
2022-10-13T04:50:07.078Z,20.02
2022-10-13T04:52:35.082Z,21.35
2022-10-13T04:55:02.428Z,22.67
2022-10-13T04:57:28.762Z,22.20
2022-10-13T04:59:55.098Z,17.50
2022-10-13T05:02:21.933Z,21.33
2022-10-13T05:04:48.477Z,21.23
2022-10-13T05:07:18.612Z,23.35
2022-10-13T05:09:45.774Z,23.20
2022-10-13T05:12:12.225Z,21.92
2022-10-13T05:14:38.524Z,21.38
2022-10-13T05:17:04.853Z,24.20
2022-10-13T05:19:31.173Z,23.00
2022-10-13T05:21:57.498Z,25.80
2022-10-13T05:24:24.023Z,22.52
2022-10-13T05:26:50.389Z,23.73
2022-10-13T05:29:16.710Z,24.73
2022-10-13T05:31:43.075Z,23.27
2022-10-13T05:34:09.392Z,24.60
2022-10-13T05:36:35.719Z,22.77
2022-10-13T05:39:04.899Z,21.75
2022-10-13T05:41:31.899Z,22.35
2022-10-13T05:44:01.374Z,23.38
2022-10-13T05:46:28.517Z,23.27
2022-10-13T05:48:55.137Z,25.23
2022-10-13T05:51:27.171Z,25.90
2022-10-13T05:54:01.296Z,26.55
2022-10-13T05:56:33.222Z,23.33
2022-10-13T05:59:04.545Z,26.80
2022-10-13T06:01:34.142Z,22.77
2022-10-13T06:04:05.963Z,27.40
2022-10-13T06:06:32.387Z,23.25
2022-10-13T06:09:00.146Z,24.63
2022-10-13T06:11:26.833Z,22.17
2022-10-13T06:13:53.157Z,25.27
2022-10-13T06:16:20.495Z,24.20
2022-10-13T06:18:46.864Z,26.33
2022-10-13T06:21:13.161Z,25.70
2022-10-13T06:23:39.492Z,23.17
2022-10-13T06:26:07.489Z,23.60
2022-10-13T06:28:33.814Z,26.88
2022-10-13T06:31:00.241Z,25.17
2022-10-13T06:33:26.573Z,23.67
2022-10-13T06:35:52.904Z,23.90
2022-10-13T06:38:19.513Z,25.35
2022-10-13T06:40:45.893Z,23.77
2022-10-13T06:43:12.218Z,24.17
2022-10-13T06:45:38.603Z,24.58
2022-10-13T06:48:05.037Z,22.33
2022-10-13T06:50:31.997Z,24.05
2022-10-13T06:52:58.292Z,23.63
2022-10-13T06:55:24.656Z,22.25
2022-10-13T06:57:50.978Z,25.80
2022-10-13T07:00:17.454Z,23.67
2022-10-13T07:02:43.893Z,27.52
2022-10-13T07:05:10.264Z,23.02
2022-10-13T07:07:36.624Z,24.83
2022-10-13T07:10:03.081Z,24.95
2022-10-13T07:12:29.792Z,25.65
2022-10-13T07:14:56.137Z,27.40
2022-10-13T07:17:22.809Z,22.60
2022-10-13T07:19:49.408Z,24.73
2022-10-13T07:22:15.757Z,24.45
2022-10-13T07:24:42.668Z,21.92
2022-10-13T07:27:09.106Z,26.50
2022-10-13T07:29:35.576Z,24.65
2022-10-13T07:32:01.944Z,23.13
2022-10-13T07:34:28.286Z,25.90
2022-10-13T07:36:54.570Z,24.85
2022-10-13T07:39:20.957Z,23.20
2022-10-13T07:41:50.910Z,21.23
2022-10-13T07:44:17.819Z,27.67
2022-10-13T07:46:44.155Z,27.70
2022-10-13T07:49:12.482Z,24.00
2022-10-13T07:51:41.689Z,23.27
2022-10-13T07:54:07.995Z,23.55
2022-10-13T07:56:34.313Z,23.30
2022-10-13T07:59:02.161Z,22.08
2022-10-13T08:01:28.525Z,21.85
2022-10-13T08:03:55.443Z,20.60
2022-10-13T08:06:22.222Z,21.48
2022-10-13T08:08:48.622Z,23.30
2022-10-13T08:11:17.128Z,23.63
2022-10-13T08:13:48.926Z,20.38
2022-10-13T08:16:15.575Z,20.13
2022-10-13T08:18:41.874Z,21.00
2022-10-13T08:21:39.040Z,24.45
2022-10-13T08:23:58.244Z,21.77
2022-10-13T08:26:27.274Z,20.67
2022-10-13T08:31:41.011Z,22.88
2022-10-13T08:34:08.282Z,19.60
2022-10-13T08:36:34.692Z,21.67
2022-10-13T08:39:01.099Z,21.23
2022-10-13T08:41:32.884Z,24.83
2022-10-13T08:44:41.311Z,22.58
2022-10-13T08:47:04.073Z,23.92
2022-10-13T08:49:30.912Z,24.55
2022-10-13T08:51:57.763Z,23.67
2022-10-13T08:54:24.852Z,25.33
2022-10-13T08:56:52.379Z,25.13
2022-10-13T08:59:19.882Z,21.67
2022-10-13T09:01:46.374Z,29.05
2022-10-13T09:04:30.686Z,21.85
2022-10-13T09:07:28.354Z,22.05
2022-10-13T09:09:55.480Z,23.00
2022-10-13T09:12:23.079Z,26.27
2022-10-13T09:15:08.354Z,23.85
2022-10-13T09:17:35.379Z,25.27
2022-10-13T09:20:23.966Z,23.90
2022-10-13T09:23:04.899Z,20.33
2022-10-13T09:25:43.011Z,22.08
2022-10-13T09:28:16.269Z,22.20
2022-10-13T09:30:45.025Z,18.90
2022-10-13T09:33:11.312Z,22.17
2022-10-13T09:35:47.335Z,22.48
2022-10-13T09:38:22.216Z,25.27
2022-10-13T09:41:10.575Z,24.75
2022-10-13T09:43:46.027Z,23.98
2022-10-13T09:46:35.404Z,22.98
2022-10-13T09:49:39.607Z,25.88
2022-10-13T09:52:12.106Z,23.17
2022-10-13T09:54:44.572Z,27.42
2022-10-13T09:57:48.127Z,25.35
2022-10-13T10:00:27.989Z,27.50
2022-10-13T10:03:17.553Z,25.08
2022-10-13T10:05:59.516Z,25.05
2022-10-13T10:09:05.383Z,26.60
2022-10-13T10:11:42.038Z,25.98
2022-10-13T10:14:24.957Z,24.95
2022-10-13T10:16:58.474Z,24.23
2022-10-13T10:19:29.133Z,24.17
2022-10-13T10:22:24.516Z,25.13
2022-10-13T10:25:00.085Z,21.60
2022-10-13T10:27:43.753Z,22.65
2022-10-13T10:32:51.933Z,24.50
2022-10-13T10:35:38.371Z,23.88
2022-10-13T10:38:21.106Z,25.67
2022-10-13T10:41:02.663Z,25.25
2022-10-13T10:43:41.625Z,24.83
2022-10-13T10:46:22.663Z,23.55
2022-10-13T10:48:52.815Z,22.52
2022-10-13T10:51:19.565Z,20.85
2022-10-13T10:53:52.496Z,21.83
2022-10-13T10:56:34.250Z,22.67
2022-10-13T10:59:03.480Z,21.60
2022-10-13T11:01:46.727Z,22.70
2022-10-13T11:04:39.251Z,21.35
2022-10-13T11:07:11.968Z,20.45
2022-10-13T11:09:41.454Z,21.98
2022-10-13T11:12:47.480Z,19.85
2022-10-13T11:15:23.303Z,18.88
2022-10-13T11:17:49.757Z,21.38
2022-10-13T11:20:21.840Z,21.17
2022-10-13T11:23:00.366Z,18.63
2022-10-13T11:25:44.226Z,18.40
2022-10-13T11:28:22.510Z,21.17
2022-10-13T11:30:51.979Z,19.17
2022-10-13T11:33:36.339Z,17.20
2022-10-13T11:36:40.374Z,24.77
2022-10-13T11:39:12.771Z,19.95
2022-10-13T11:42:05.640Z,19.80
2022-10-13T11:44:47.322Z,18.20
2022-10-13T11:47:59.242Z,17.25
2022-10-13T11:50:44.320Z,17.08
2022-10-13T11:53:17.917Z,20.65
2022-10-13T11:55:58.722Z,22.38
2022-10-13T11:58:28.794Z,17.25
2022-10-13T12:01:00.816Z,17.35
2022-10-13T12:03:35.916Z,18.10
2022-10-13T12:06:05.491Z,20.67
2022-10-13T12:08:35.676Z,20.25
2022-10-13T12:11:04.026Z,16.67
2022-10-13T12:13:32.683Z,18.17
2022-10-13T12:16:06.512Z,14.32
2022-10-13T12:18:35.658Z,15.43
2022-10-13T12:21:08.841Z,13.90
2022-10-13T12:23:35.532Z,17.58
2022-10-13T12:26:02.396Z,18.98
2022-10-13T12:28:49.789Z,16.65
2022-10-13T12:31:23.620Z,19.35
2022-10-13T12:33:58.711Z,20.00
2022-10-13T12:36:30.657Z,20.67
2022-10-13T12:39:02.075Z,19.02
2022-10-13T12:41:32.589Z,22.60
2022-10-13T12:44:02.422Z,18.90
2022-10-13T12:46:36.823Z,20.17
2022-10-13T12:49:24.078Z,19.50
2022-10-13T12:51:58.708Z,19.42
2022-10-13T12:54:30.993Z,20.35
2022-10-13T12:57:04.553Z,17.00
2022-10-13T12:59:31.378Z,17.58
2022-10-13T13:02:03.871Z,19.15
2022-10-13T13:04:37.956Z,17.67
2022-10-13T13:07:05.757Z,17.35
2022-10-13T13:09:33.817Z,19.80
2022-10-13T13:12:12.553Z,18.27
2022-10-13T13:14:47.293Z,17.08
2022-10-13T13:17:17.553Z,20.63
2022-10-13T13:19:55.310Z,18.55
2022-10-13T13:22:22.079Z,18.08
2022-10-13T13:24:50.805Z,18.45
2022-10-13T13:27:19.132Z,20.85
2022-10-13T13:29:45.861Z,18.60
2022-10-13T13:32:14.372Z,19.27
2022-10-13T13:34:40.973Z,19.17
2022-10-13T13:37:13.998Z,19.70
2022-10-13T13:39:40.305Z,19.63
2022-10-13T13:42:12.662Z,18.88
2022-10-13T13:44:38.979Z,19.85
2022-10-13T13:47:08.833Z,21.98
2022-10-13T13:49:35.788Z,20.88
2022-10-13T13:52:02.331Z,20.63
2022-10-13T13:54:28.645Z,20.92
2022-10-13T13:56:58.738Z,17.90
2022-10-13T13:59:25.288Z,18.65
2022-10-13T14:01:51.668Z,18.10
2022-10-13T14:04:18.061Z,22.08
2022-10-13T14:06:44.383Z,19.98
2022-10-13T14:09:10.732Z,22.02
2022-10-13T14:11:37.046Z,20.17
2022-10-13T14:14:03.477Z,21.00
2022-10-13T14:16:29.816Z,22.80
2022-10-13T14:18:57.045Z,22.48
2022-10-13T14:21:23.394Z,24.13
2022-10-13T14:23:49.694Z,20.15
2022-10-13T14:26:16.006Z,23.30
2022-10-13T14:28:45.402Z,20.13
2022-10-13T14:31:12.296Z,21.35
2022-10-13T14:33:38.706Z,21.65
2022-10-13T14:36:07.036Z,21.10
2022-10-13T14:38:33.952Z,24.05
2022-10-13T14:41:02.369Z,22.38
2022-10-13T14:43:28.805Z,21.40
2022-10-13T14:45:55.201Z,23.40
2022-10-13T14:48:24.814Z,24.98
2022-10-13T14:50:51.399Z,24.10
2022-10-13T14:53:17.737Z,24.50
2022-10-13T14:55:45.095Z,24.50
2022-10-13T14:58:12.289Z,23.75
2022-10-13T15:00:38.670Z,25.65
2022-10-13T15:03:04.994Z,23.58
2022-10-13T15:05:31.412Z,27.58
2022-10-13T15:07:57.733Z,22.73
2022-10-13T15:10:24.082Z,23.50
2022-10-13T15:12:50.415Z,25.10
2022-10-13T15:15:16.751Z,23.88
2022-10-13T15:17:43.078Z,24.90
2022-10-13T15:20:09.862Z,24.23
2022-10-13T15:22:36.180Z,25.23
2022-10-13T15:25:02.481Z,27.65
2022-10-13T15:27:28.796Z,25.08
2022-10-13T15:29:55.113Z,25.45
2022-10-13T15:32:21.714Z,25.88
2022-10-13T15:34:48.308Z,27.33
2022-10-13T15:37:14.600Z,26.65
2022-10-13T15:39:40.956Z,27.83
2022-10-13T15:42:07.295Z,24.92
2022-10-13T15:44:57.274Z,27.92
2022-10-13T15:47:20.099Z,25.75
2022-10-13T15:49:46.406Z,23.95
2022-10-13T15:52:12.792Z,26.42
2022-10-13T15:54:39.352Z,25.95
2022-10-13T15:57:05.655Z,26.48
2022-10-13T15:59:31.932Z,26.60
2022-10-13T16:01:58.250Z,22.20
2022-10-13T16:04:24.653Z,29.52
2022-10-13T16:06:50.966Z,26.20
2022-10-13T16:09:17.305Z,21.92
2022-10-13T16:11:43.596Z,25.15
2022-10-13T16:14:09.915Z,29.58
2022-10-13T16:16:36.300Z,25.17
2022-10-13T16:19:02.652Z,26.88
2022-10-13T16:21:28.989Z,26.23
2022-10-13T16:23:55.386Z,26.35
2022-10-13T16:26:21.709Z,26.73
2022-10-13T16:28:48.090Z,27.40
2022-10-13T16:31:16.358Z,25.30
2022-10-13T16:33:44.467Z,26.95
2022-10-13T16:36:16.286Z,27.17
2022-10-13T16:38:44.063Z,26.13
2022-10-13T16:41:12.874Z,27.98
2022-10-13T16:43:39.252Z,28.45
2022-10-13T16:46:06.070Z,26.05
2022-10-13T16:48:32.850Z,27.67
2022-10-13T16:51:03.870Z,27.98
2022-10-13T16:53:30.172Z,27.73
2022-10-13T16:55:56.477Z,29.52
2022-10-13T16:58:22.809Z,28.90
2022-10-13T17:00:49.200Z,27.77
2022-10-13T17:03:15.563Z,30.65
2022-10-13T17:05:41.911Z,29.48
2022-10-13T17:08:08.197Z,29.10
2022-10-13T17:10:34.711Z,29.92
2022-10-13T17:13:01.603Z,32.47
2022-10-13T17:15:27.939Z,33.92
2022-10-13T17:17:54.262Z,31.98
2022-10-13T17:20:20.586Z,28.60
2022-10-13T17:22:46.921Z,33.72
2022-10-13T17:25:13.241Z,31.85
2022-10-13T17:27:39.565Z,31.35
2022-10-13T17:30:06.307Z,35.05
2022-10-13T17:32:37.253Z,30.30
2022-10-13T17:35:03.765Z,32.08
2022-10-13T17:37:30.274Z,37.95
2022-10-13T17:39:56.640Z,34.78
2022-10-13T17:42:22.957Z,32.20
2022-10-13T17:44:49.426Z,33.78
2022-10-13T17:47:15.718Z,33.75
2022-10-13T17:49:42.106Z,38.15
2022-10-13T17:52:08.404Z,31.48
2022-10-13T17:54:34.757Z,33.10
2022-10-13T17:57:01.272Z,33.17
2022-10-13T17:59:27.624Z,33.40
2022-10-13T18:01:53.949Z,33.92
2022-10-13T18:04:20.316Z,35.10
2022-10-13T18:06:46.660Z,39.22
2022-10-13T18:09:18.593Z,33.00
2022-10-13T18:11:50.301Z,37.50
2022-10-13T18:14:19.086Z,34.53
2022-10-13T18:16:45.444Z,34.50
2022-10-13T18:19:12.074Z,39.55
2022-10-13T18:21:38.456Z,40.35
2022-10-13T18:24:05.208Z,32.75
2022-10-13T18:26:33.473Z,37.42
2022-10-13T18:28:59.826Z,36.00
2022-10-13T18:31:31.761Z,34.67
2022-10-13T18:34:00.198Z,39.25
2022-10-13T18:36:38.137Z,37.55
2022-10-13T18:39:11.718Z,36.28
2022-10-13T18:41:38.615Z,37.35
2022-10-13T18:44:06.035Z,35.67
2022-10-13T18:46:33.157Z,37.75
2022-10-13T18:48:59.569Z,39.90
2022-10-13T18:51:26.285Z,39.88
2022-10-13T18:53:52.647Z,39.22
2022-10-13T18:56:22.391Z,40.35
2022-10-13T18:58:49.284Z,40.10
2022-10-13T19:01:21.477Z,41.50
2022-10-13T19:03:48.851Z,38.95
2022-10-13T19:06:16.195Z,41.35
2022-10-13T19:08:43.508Z,44.15
2022-10-13T19:11:18.893Z,41.80
2022-10-13T19:13:46.383Z,38.60
2022-10-13T19:16:15.799Z,40.58
2022-10-13T19:18:42.199Z,36.85
2022-10-13T19:21:09.052Z,39.58
2022-10-13T19:23:37.508Z,37.60
2022-10-13T19:26:15.431Z,44.15
2022-10-13T19:28:42.893Z,44.25
2022-10-13T19:31:15.639Z,41.95
2022-10-13T19:33:44.753Z,43.40
2022-10-13T19:36:21.689Z,43.85
2022-10-13T19:38:48.103Z,39.65
2022-10-13T19:41:14.663Z,41.45
2022-10-13T19:43:41.010Z,44.92
2022-10-13T19:46:08.303Z,39.95
2022-10-13T19:48:37.444Z,45.00
2022-10-13T19:51:08.423Z,45.03
2022-10-13T19:53:36.197Z,41.78
2022-10-13T19:56:02.605Z,42.88
2022-10-13T19:58:28.993Z,45.90
2022-10-13T20:00:55.402Z,46.90
2022-10-13T20:03:21.749Z,50.03
2022-10-13T20:05:48.143Z,43.45
2022-10-13T20:08:14.499Z,40.90
2022-10-13T20:10:42.287Z,39.90
2022-10-13T20:13:10.000Z,43.63
2022-10-13T20:15:41.425Z,46.92
2022-10-13T20:18:08.271Z,47.10
2022-10-13T20:20:35.978Z,42.38
2022-10-13T20:23:02.537Z,44.45
2022-10-13T20:25:28.838Z,46.88
2022-10-13T20:27:55.174Z,47.85
2022-10-13T20:30:21.671Z,44.45
2022-10-13T20:32:48.062Z,45.78
2022-10-13T20:35:14.542Z,48.45
2022-10-13T20:37:40.880Z,44.80
2022-10-13T20:40:07.625Z,46.42
2022-10-13T20:42:34.010Z,44.95
2022-10-13T20:45:00.343Z,42.33
2022-10-13T20:47:26.682Z,40.33
2022-10-13T20:49:52.979Z,38.75
2022-10-13T20:52:19.318Z,38.88
2022-10-13T20:54:45.593Z,38.58
2022-10-13T20:57:11.905Z,38.60
2022-10-13T20:59:38.334Z,37.53
2022-10-13T21:02:04.653Z,40.17
2022-10-13T21:04:30.956Z,42.53
2022-10-13T21:06:57.242Z,38.70
2022-10-13T21:09:23.577Z,39.42
2022-10-13T21:11:49.884Z,40.30
2022-10-13T21:14:16.182Z,36.40
2022-10-13T21:16:42.498Z,35.15
2022-10-13T21:19:09.136Z,39.30
2022-10-13T21:21:37.479Z,35.25
2022-10-13T21:24:06.503Z,33.38
2022-10-13T21:26:33.851Z,36.25
2022-10-13T21:29:00.763Z,32.72
2022-10-13T21:31:27.990Z,30.25
2022-10-13T21:33:54.772Z,28.85
2022-10-13T21:36:24.008Z,26.45
2022-10-13T21:38:52.828Z,28.10
2022-10-13T21:41:19.959Z,26.20
2022-10-13T21:43:46.552Z,26.25
2022-10-13T21:46:18.915Z,27.90
2022-10-13T21:48:46.799Z,25.10
2022-10-13T21:51:14.569Z,25.35
2022-10-13T21:53:41.778Z,27.17
2022-10-13T21:56:09.596Z,22.95
2022-10-13T21:58:35.896Z,23.98
2022-10-13T22:01:03.434Z,23.55
2022-10-13T22:03:30.401Z,22.77
2022-10-13T22:05:56.988Z,23.60
2022-10-13T22:08:37.530Z,23.42
2022-10-13T22:11:06.563Z,25.85
2022-10-13T22:13:32.918Z,24.17
2022-10-13T22:16:04.265Z,23.52
2022-10-13T22:18:30.638Z,21.52
2022-10-13T22:21:03.165Z,22.52
2022-10-13T22:23:30.271Z,23.02
2022-10-13T22:25:56.827Z,21.17
2022-10-13T22:28:23.444Z,20.55
2022-10-13T22:30:51.251Z,21.88
2022-10-13T22:33:18.304Z,20.20
2022-10-13T22:35:44.887Z,22.08
2022-10-13T22:38:11.182Z,25.30
2022-10-13T22:40:37.492Z,21.05
2022-10-13T22:43:03.830Z,21.63
2022-10-13T22:45:30.150Z,22.17
2022-10-13T22:47:56.491Z,22.75
2022-10-13T22:50:22.836Z,23.67
2022-10-13T22:52:49.244Z,20.95
2022-10-13T22:55:15.582Z,21.33
2022-10-13T22:57:41.932Z,22.40
2022-10-13T23:00:10.007Z,27.45
2022-10-13T23:02:36.355Z,25.63
2022-10-13T23:05:02.843Z,21.50
2022-10-13T23:07:29.607Z,21.60
2022-10-13T23:09:55.935Z,21.73
2022-10-13T23:12:22.339Z,21.52
2022-10-13T23:14:48.678Z,23.50
2022-10-13T23:17:14.995Z,33.00
2022-10-13T23:19:41.314Z,32.58
2022-10-13T23:22:07.611Z,40.35
2022-10-13T23:24:33.918Z,29.98
2022-10-13T23:27:00.240Z,37.10
2022-10-13T23:29:27.844Z,38.28
2022-10-13T23:31:54.199Z,55.58
2022-10-13T23:34:21.275Z,55.15
2022-10-13T23:36:47.582Z,54.60
2022-10-13T23:39:13.932Z,62.72
2022-10-13T23:41:40.375Z,70.45
2022-10-13T23:44:06.689Z,55.00
2022-10-13T23:46:32.996Z,61.80
2022-10-13T23:48:59.380Z,60.50
2022-10-13T23:51:26.271Z,66.10
2022-10-13T23:53:53.324Z,60.20
2022-10-13T23:56:20.261Z,57.03
2022-10-13T23:58:47.107Z,72.82
